createdAt,value
2017-05-11T00:00:37.747Z,7.98
2017-05-11T00:01:48.763Z,7.92
2017-05-11T00:02:59.802Z,7.95
2017-05-11T00:04:10.800Z,7.99
2017-05-11T00:05:22.007Z,7.95
2017-05-11T00:06:33.016Z,7.83
2017-05-11T00:07:44.031Z,7.91
2017-05-11T00:08:55.237Z,7.96
2017-05-11T00:10:06.289Z,7.88
2017-05-11T00:11:17.295Z,7.85
2017-05-11T00:12:28.499Z,7.77
2017-05-11T00:13:39.494Z,7.8
2017-05-11T00:14:50.494Z,7.78
2017-05-11T00:16:01.501Z,7.82
2017-05-11T00:17:12.534Z,7.73
2017-05-11T00:18:23.545Z,7.74
2017-05-11T00:19:34.539Z,7.71
2017-05-11T00:20:45.601Z,7.67
2017-05-11T00:21:56.614Z,7.67
2017-05-11T00:23:07.616Z,7.7
2017-05-11T00:24:18.829Z,7.67
2017-05-11T00:25:29.835Z,7.73
2017-05-11T00:26:41.044Z,7.68
2017-05-11T00:27:52.058Z,7.7
2017-05-11T00:29:03.066Z,7.68
2017-05-11T00:30:14.276Z,7.7
2017-05-11T00:31:25.534Z,7.58
2017-05-11T00:32:36.737Z,7.67
2017-05-11T00:33:47.781Z,7.61
2017-05-11T00:34:58.990Z,7.51
2017-05-11T00:36:10.429Z,7.63
2017-05-11T00:37:21.427Z,7.63
2017-05-11T00:38:32.443Z,7.41
2017-05-11T00:39:43.439Z,7.48
2017-05-11T00:40:54.473Z,7.55
2017-05-11T00:42:05.521Z,7.49
2017-05-11T00:43:16.528Z,7.55
2017-05-11T00:44:27.540Z,7.44
2017-05-11T00:45:38.542Z,7.4
2017-05-11T00:46:49.546Z,7.47
2017-05-11T00:48:00.802Z,7.4
2017-05-11T00:49:11.804Z,7.45
2017-05-11T00:50:22.809Z,7.41
2017-05-11T00:51:33.817Z,7.4
2017-05-11T00:52:45.031Z,7.37
2017-05-11T00:53:56.024Z,7.39
2017-05-11T00:55:07.027Z,7.41
2017-05-11T00:56:18.234Z,7.41
2017-05-11T00:57:29.244Z,7.33
2017-05-11T00:58:40.248Z,7.26
2017-05-11T00:59:51.279Z,7.36
2017-05-11T01:01:02.280Z,7.33
2017-05-11T01:02:13.287Z,7.23
2017-05-11T01:03:24.290Z,7.23
2017-05-11T01:04:35.494Z,7.26
2017-05-11T01:05:46.754Z,7.29
2017-05-11T01:06:57.755Z,7.26
2017-05-11T01:08:08.961Z,7.21
2017-05-11T01:09:19.982Z,7.23
2017-05-11T01:10:30.992Z,7.18
2017-05-11T01:11:41.991Z,7.23
2017-05-11T01:12:53.004Z,7.21
2017-05-11T01:14:04.416Z,7.19
2017-05-11T01:15:15.479Z,7.18
2017-05-11T01:16:26.491Z,7.23
2017-05-11T01:17:37.480Z,7.16
2017-05-11T01:18:48.478Z,7.16
2017-05-11T01:19:59.524Z,7.22
2017-05-11T01:21:10.530Z,7.12
2017-05-11T01:22:21.521Z,7.03
2017-05-11T01:23:32.742Z,7.08
2017-05-11T01:24:43.791Z,7.13
2017-05-11T01:25:54.849Z,7.09
2017-05-11T01:27:05.866Z,7.09
2017-05-11T01:28:16.882Z,7.13
2017-05-11T01:29:28.089Z,7.01
2017-05-11T01:30:39.099Z,7.09
2017-05-11T01:31:50.094Z,7.03
2017-05-11T01:33:01.120Z,7.04
2017-05-11T01:34:12.133Z,7.05
2017-05-11T01:35:23.141Z,7.03
2017-05-11T01:36:34.203Z,7.01
2017-05-11T01:37:45.414Z,7.05
2017-05-11T01:38:56.623Z,7.03
2017-05-11T01:40:07.626Z,7
2017-05-11T01:41:18.630Z,7.05
2017-05-11T01:42:29.637Z,6.98
2017-05-11T01:43:40.659Z,7.03
2017-05-11T01:44:51.853Z,6.91
2017-05-11T01:46:02.855Z,6.94
2017-05-11T01:47:13.921Z,6.91
2017-05-11T01:48:25.133Z,6.86
2017-05-11T01:49:36.125Z,6.82
2017-05-11T01:50:47.138Z,6.86
2017-05-11T01:51:58.148Z,6.85
2017-05-11T01:53:09.417Z,6.88
2017-05-11T01:54:20.431Z,6.94
2017-05-11T01:55:31.646Z,6.93
2017-05-11T01:56:42.649Z,6.91
2017-05-11T01:57:53.648Z,6.93
2017-05-11T01:59:04.880Z,6.86
2017-05-11T02:00:15.882Z,6.9
2017-05-11T02:01:27.085Z,6.83
2017-05-11T02:02:38.084Z,6.82
2017-05-11T02:03:49.092Z,6.85
2017-05-11T02:05:00.131Z,6.7
2017-05-11T02:06:11.132Z,6.79
2017-05-11T02:07:22.146Z,6.7
2017-05-11T02:08:33.173Z,6.76
2017-05-11T02:09:44.239Z,6.78
2017-05-11T02:10:55.458Z,6.82
2017-05-11T02:12:06.473Z,6.82
2017-05-11T02:13:17.476Z,6.72
2017-05-11T02:14:28.492Z,6.76
2017-05-11T02:15:39.706Z,6.91
2017-05-11T02:16:50.713Z,6.83
2017-05-11T02:18:01.728Z,6.85
2017-05-11T02:19:13.130Z,6.86
2017-05-11T02:20:24.196Z,6.79
2017-05-11T02:21:35.192Z,6.73
2017-05-11T02:22:46.213Z,6.73
2017-05-11T02:23:57.428Z,6.7
2017-05-11T02:25:08.431Z,6.76
2017-05-11T02:26:19.629Z,6.75
2017-05-11T02:27:30.640Z,6.79
2017-05-11T02:28:41.635Z,6.7
2017-05-11T02:29:52.650Z,6.76
2017-05-11T02:31:03.695Z,6.75
2017-05-11T02:32:14.904Z,6.61
2017-05-11T02:33:25.912Z,6.79
2017-05-11T02:34:36.917Z,6.72
2017-05-11T02:35:47.928Z,6.62
2017-05-11T02:36:58.937Z,6.6
2017-05-11T02:38:09.939Z,6.61
2017-05-11T02:39:21.150Z,6.61
2017-05-11T02:40:32.158Z,6.62
2017-05-11T02:41:43.209Z,6.62
2017-05-11T02:42:54.397Z,6.62
2017-05-11T02:44:05.593Z,6.72
2017-05-11T02:45:16.805Z,6.62
2017-05-11T02:46:27.805Z,6.72
2017-05-11T02:47:38.808Z,6.67
2017-05-11T02:48:49.812Z,6.61
2017-05-11T02:50:00.817Z,6.61
2017-05-11T02:51:11.820Z,6.61
2017-05-11T02:52:23.067Z,6.57
2017-05-11T02:53:34.070Z,6.6
2017-05-11T02:54:45.277Z,6.58
2017-05-11T02:55:56.277Z,6.58
2017-05-11T02:57:07.474Z,6.61
2017-05-11T02:58:18.541Z,6.52
2017-05-11T02:59:29.551Z,6.51
2017-05-11T03:00:40.555Z,6.52
2017-05-11T03:01:51.973Z,6.52
2017-05-11T03:03:02.979Z,6.52
2017-05-11T03:04:13.977Z,6.42
2017-05-11T03:05:24.989Z,6.52
2017-05-11T03:06:35.988Z,6.44
2017-05-11T03:07:46.987Z,6.42
2017-05-11T03:08:57.990Z,6.39
2017-05-11T03:10:08.992Z,6.43
2017-05-11T03:11:20.402Z,6.42
2017-05-11T03:12:31.620Z,6.43
2017-05-11T03:13:42.629Z,6.4
2017-05-11T03:14:53.666Z,6.37
2017-05-11T03:16:04.925Z,6.37
2017-05-11T03:17:16.150Z,6.36
2017-05-11T03:18:27.363Z,6.29
2017-05-11T03:19:38.360Z,6.36
2017-05-11T03:20:49.562Z,6.28
2017-05-11T03:22:00.567Z,6.29
2017-05-11T03:23:11.576Z,6.24
2017-05-11T03:24:22.584Z,6.21
2017-05-11T03:25:33.592Z,6.17
2017-05-11T03:26:44.585Z,6.25
2017-05-11T03:27:55.792Z,6.18
2017-05-11T03:29:06.787Z,6.26
2017-05-11T03:30:18.042Z,6.2
2017-05-11T03:31:29.238Z,6.2
2017-05-11T03:32:40.239Z,6.25
2017-05-11T03:33:51.455Z,6.26
2017-05-11T03:35:02.467Z,6.1
2017-05-11T03:36:13.667Z,6.26
2017-05-11T03:37:24.881Z,6.15
2017-05-11T03:38:35.898Z,6.15
2017-05-11T03:39:46.904Z,6.14
2017-05-11T03:40:58.181Z,6.2
2017-05-11T03:42:09.169Z,6.18
2017-05-11T03:43:20.169Z,6.14
2017-05-11T03:44:31.163Z,6.09
2017-05-11T03:45:42.357Z,6.15
2017-05-11T03:46:53.951Z,6.1
2017-05-11T03:48:05.002Z,6.07
2017-05-11T03:49:16.011Z,6.09
2017-05-11T03:50:27.008Z,6.14
2017-05-11T03:51:38.052Z,6.1
2017-05-11T03:52:49.252Z,6.03
2017-05-11T03:54:00.270Z,6.06
2017-05-11T03:55:11.472Z,6.09
2017-05-11T03:56:22.477Z,6.05
2017-05-11T03:57:33.692Z,6.07
2017-05-11T03:58:44.684Z,6.05
2017-05-11T03:59:55.683Z,6.07
2017-05-11T04:01:06.938Z,6.09
2017-05-11T04:02:17.974Z,6.07
2017-05-11T04:03:28.992Z,6.09
2017-05-11T04:04:40.027Z,5.92
2017-05-11T04:05:51.024Z,6.05
2017-05-11T04:07:02.039Z,6.13
2017-05-11T04:08:13.303Z,6.02
2017-05-11T04:09:24.514Z,6.09
2017-05-11T04:10:35.519Z,6.2
2017-05-11T04:11:46.527Z,6.14
2017-05-11T04:12:57.536Z,6.17
2017-05-11T04:14:08.795Z,6.21
2017-05-11T04:15:19.794Z,6.37
2017-05-11T04:16:30.800Z,6.37
2017-05-11T04:17:41.801Z,6.52
2017-05-11T04:18:52.797Z,6.61
2017-05-11T04:20:03.810Z,6.85
2017-05-11T04:21:14.815Z,6.95
2017-05-11T04:22:26.061Z,7.23
2017-05-11T04:23:37.119Z,7.44
2017-05-11T04:24:48.126Z,7.64
2017-05-11T04:25:59.120Z,7.78
2017-05-11T04:27:10.122Z,7.98
2017-05-11T04:28:21.113Z,8.16
2017-05-11T04:29:32.136Z,8.35
2017-05-11T04:30:43.140Z,8.53
2017-05-11T04:31:54.341Z,8.82
2017-05-11T04:33:05.351Z,8.86
2017-05-11T04:34:16.407Z,8.95
2017-05-11T04:35:27.461Z,9.14
2017-05-11T04:36:38.461Z,9.27
2017-05-11T04:37:49.466Z,9.42
2017-05-11T04:39:00.670Z,9.5
2017-05-11T04:40:11.677Z,9.64
2017-05-11T04:41:22.674Z,9.64
2017-05-11T04:42:33.869Z,9.66
2017-05-11T04:43:44.872Z,9.56
2017-05-11T04:44:56.129Z,9.41
2017-05-11T04:46:07.149Z,9.34
2017-05-11T04:47:18.557Z,9.14
2017-05-11T04:48:29.549Z,9.14
2017-05-11T04:49:40.558Z,8.98
2017-05-11T04:50:51.554Z,9.03
2017-05-11T04:52:02.754Z,8.86
2017-05-11T04:53:14.168Z,8.95
2017-05-11T04:54:25.173Z,8.95
2017-05-11T04:55:36.241Z,9.2
2017-05-11T04:56:47.237Z,9.16
2017-05-11T04:57:58.238Z,9.14
2017-05-11T04:59:09.239Z,9.16
2017-05-11T05:00:20.250Z,9.11
2017-05-11T05:01:31.260Z,9
2017-05-11T05:02:42.314Z,8.97
2017-05-11T05:03:53.514Z,8.85
2017-05-11T05:05:04.518Z,8.76
2017-05-11T05:06:15.583Z,8.71
2017-05-11T05:07:26.583Z,8.74
2017-05-11T05:08:37.596Z,8.69
2017-05-11T05:09:48.627Z,8.77
2017-05-11T05:10:59.839Z,8.77
2017-05-11T05:12:10.856Z,8.82
2017-05-11T05:13:21.874Z,9.01
2017-05-11T05:14:33.088Z,9.16
2017-05-11T05:15:44.079Z,9.17
2017-05-11T05:16:55.093Z,9.35
2017-05-11T05:18:06.088Z,9.59
2017-05-11T05:19:17.093Z,9.71
2017-05-11T05:20:28.095Z,9.74
2017-05-11T05:21:39.104Z,9.75
2017-05-11T05:22:50.108Z,9.74
2017-05-11T05:24:01.172Z,9.64
2017-05-11T05:25:12.181Z,9.56
2017-05-11T05:26:23.180Z,9.47
2017-05-11T05:27:34.394Z,9.47
2017-05-11T05:28:45.397Z,9.32
2017-05-11T05:29:56.401Z,9.2
2017-05-11T05:31:07.403Z,9.19
2017-05-11T05:32:18.409Z,9.14
2017-05-11T05:33:29.472Z,9.12
2017-05-11T05:34:40.682Z,9.08
2017-05-11T05:35:51.693Z,9
2017-05-11T05:37:02.713Z,9.04
2017-05-11T05:38:13.733Z,9.16
2017-05-11T05:39:24.795Z,9.16
2017-05-11T05:40:36.022Z,9.21
2017-05-11T05:41:47.027Z,9.24
2017-05-11T05:42:58.040Z,9.23
2017-05-11T05:44:09.099Z,9.29
2017-05-11T05:45:20.113Z,9.34
2017-05-11T05:46:31.129Z,9.34
2017-05-11T05:47:42.140Z,9.32
2017-05-11T05:48:53.146Z,9.37
2017-05-11T05:50:04.153Z,9.42
2017-05-11T05:51:15.351Z,9.48
2017-05-11T05:52:26.356Z,9.56
2017-05-11T05:53:37.367Z,9.64
2017-05-11T05:54:48.618Z,9.7
2017-05-11T05:55:59.624Z,9.82
2017-05-11T05:57:10.857Z,9.77
2017-05-11T05:58:21.861Z,9.88
2017-05-11T05:59:33.079Z,10.11
2017-05-11T06:00:44.084Z,10.46
2017-05-11T06:01:55.078Z,10.7
2017-05-11T06:03:06.085Z,11.03
2017-05-11T06:04:17.125Z,11.49
2017-05-11T06:05:28.187Z,11.61
2017-05-11T06:06:39.203Z,12.05
2017-05-11T06:07:50.208Z,12.16
2017-05-11T06:09:01.213Z,12.26
2017-05-11T06:10:12.235Z,12.25
2017-05-11T06:11:23.267Z,12.56
2017-05-11T06:12:34.289Z,12.74
2017-05-11T06:13:45.511Z,12.95
2017-05-11T06:14:56.533Z,13.01
2017-05-11T06:16:07.596Z,13.21
2017-05-11T06:17:18.604Z,13.39
2017-05-11T06:18:29.612Z,13.53
2017-05-11T06:19:40.628Z,13.76
2017-05-11T06:20:51.690Z,13.94
2017-05-11T06:22:02.913Z,14.06
2017-05-11T06:23:13.940Z,14.28
2017-05-11T06:24:24.951Z,14.27
2017-05-11T06:25:36.387Z,14.41
2017-05-11T06:26:47.396Z,14.52
2017-05-11T06:27:58.409Z,14.64
2017-05-11T06:29:09.446Z,14.95
2017-05-11T06:30:20.464Z,15.07
2017-05-11T06:31:31.683Z,14.98
2017-05-11T06:32:42.703Z,15.1
2017-05-11T06:33:53.772Z,15.16
2017-05-11T06:35:04.785Z,15.15
2017-05-11T06:36:15.801Z,15.4
2017-05-11T06:37:26.817Z,15.55
2017-05-11T06:38:37.850Z,15.88
2017-05-11T06:39:48.861Z,15.83
2017-05-11T06:41:00.081Z,15.98
2017-05-11T06:42:11.101Z,15.96
2017-05-11T06:43:22.176Z,16.06
2017-05-11T06:44:33.206Z,16.18
2017-05-11T06:45:44.228Z,16.17
2017-05-11T06:46:55.242Z,16.21
2017-05-11T06:48:06.262Z,16.14
2017-05-11T06:49:17.281Z,16.26
2017-05-11T06:50:28.310Z,16.47
2017-05-11T06:51:39.332Z,16.72
2017-05-11T06:52:50.357Z,16.7
2017-05-11T06:54:01.440Z,16.73
2017-05-11T06:55:12.488Z,16.97
2017-05-11T06:56:23.710Z,17.06
2017-05-11T06:57:34.732Z,17.36
2017-05-11T06:58:45.757Z,17.71
2017-05-11T06:59:56.777Z,18.08
2017-05-11T07:01:07.810Z,18.26
2017-05-11T07:02:18.834Z,18.39
2017-05-11T07:03:29.876Z,18.57
2017-05-11T07:04:40.981Z,18.76
2017-05-11T07:05:51.996Z,18.93
2017-05-11T07:07:03.033Z,18.84
2017-05-11T07:08:14.259Z,18.86
2017-05-11T07:09:25.686Z,18.84
2017-05-11T07:10:36.717Z,18.94
2017-05-11T07:11:47.948Z,18.87
2017-05-11T07:12:58.986Z,18.87
2017-05-11T07:14:10.040Z,19.24
2017-05-11T07:15:21.111Z,19.6
2017-05-11T07:16:32.137Z,19.64
2017-05-11T07:17:43.151Z,19.74
2017-05-11T07:18:54.172Z,19.63
2017-05-11T07:20:05.201Z,19.61
2017-05-11T07:21:16.327Z,19.43
2017-05-11T07:22:27.347Z,19.42
2017-05-11T07:23:38.380Z,19.43
2017-05-11T07:24:49.402Z,19.57
2017-05-11T07:26:00.635Z,19.67
2017-05-11T07:27:11.661Z,19.67
2017-05-11T07:28:22.688Z,19.7
2017-05-11T07:29:33.715Z,19.92
2017-05-11T07:30:44.765Z,19.98
2017-05-11T07:31:55.992Z,20.15
2017-05-11T07:33:07.027Z,19.93
2017-05-11T07:34:18.054Z,19.98
2017-05-11T07:35:29.086Z,20.01
2017-05-11T07:36:40.111Z,20.01
2017-05-11T07:37:51.136Z,20.08
2017-05-11T07:39:02.418Z,20.08
2017-05-11T07:40:13.640Z,20.27
2017-05-11T07:41:24.663Z,20.64
2017-05-11T07:42:35.694Z,20.75
2017-05-11T07:43:46.713Z,20.9
2017-05-11T07:44:57.736Z,20.98
2017-05-11T07:46:08.760Z,21.03
2017-05-11T07:47:19.798Z,21.22
2017-05-11T07:48:31.277Z,21.28
2017-05-11T07:49:42.309Z,21.49
2017-05-11T07:50:53.927Z,21.45
2017-05-11T07:52:04.960Z,21.28
2017-05-11T07:53:16.194Z,21.09
2017-05-11T07:54:27.240Z,20.82
2017-05-11T07:55:38.256Z,20.63
2017-05-11T07:56:49.300Z,20.53
2017-05-11T07:58:00.332Z,20.46
2017-05-11T07:59:11.409Z,20.67
2017-05-11T08:00:22.425Z,20.64
2017-05-11T08:01:33.449Z,20.51
2017-05-11T08:02:44.464Z,20.4
2017-05-11T08:03:55.486Z,20.35
2017-05-11T08:05:06.512Z,20.44
2017-05-11T08:06:17.738Z,20.54
2017-05-11T08:07:28.751Z,20.53
2017-05-11T08:08:39.773Z,20.72
2017-05-11T08:09:51.065Z,20.82
2017-05-11T08:11:02.088Z,20.9
2017-05-11T08:12:13.115Z,20.88
2017-05-11T08:13:24.133Z,21.13
2017-05-11T08:14:35.171Z,21.49
2017-05-11T08:15:46.200Z,21.38
2017-05-11T08:16:57.235Z,21.43
2017-05-11T08:18:08.245Z,21.51
2017-05-11T08:19:19.280Z,21.37
2017-05-11T08:20:30.298Z,21.49
2017-05-11T08:21:41.722Z,21.78
2017-05-11T08:22:52.753Z,22.08
2017-05-11T08:24:03.784Z,22.27
2017-05-11T08:25:14.843Z,22.55
2017-05-11T08:26:25.879Z,22.63
2017-05-11T08:27:36.932Z,22.51
2017-05-11T08:28:48.374Z,22.7
2017-05-11T08:29:59.406Z,22.86
2017-05-11T08:31:10.436Z,23.1
2017-05-11T08:32:21.668Z,23.12
2017-05-11T08:33:32.705Z,23.47
2017-05-11T08:34:43.729Z,23.64
2017-05-11T08:35:54.756Z,23.78
2017-05-11T08:37:05.781Z,23.85
2017-05-11T08:38:16.804Z,23.87
2017-05-11T08:39:27.831Z,23.97
2017-05-11T08:40:39.067Z,24.02
2017-05-11T08:41:50.093Z,24
2017-05-11T08:43:01.188Z,23.94
2017-05-11T08:44:12.230Z,24.08
2017-05-11T08:45:23.263Z,24.04
2017-05-11T08:46:34.297Z,24.02
2017-05-11T08:47:45.322Z,23.97
2017-05-11T08:48:56.359Z,24.4
2017-05-11T08:50:07.396Z,24.36
2017-05-11T08:51:18.417Z,24.37
2017-05-11T08:52:29.490Z,24.37
2017-05-11T08:53:40.520Z,24.52
2017-05-11T08:54:51.555Z,24.75
2017-05-11T08:56:02.574Z,24.74
2017-05-11T08:57:13.598Z,24.77
2017-05-11T08:58:25.235Z,24.74
2017-05-11T08:59:36.263Z,24.71
2017-05-11T09:00:47.299Z,24.7
2017-05-11T09:01:58.948Z,24.75
2017-05-11T09:03:10.030Z,24.7
2017-05-11T09:04:21.270Z,24.77
2017-05-11T09:05:32.499Z,24.86
2017-05-11T09:06:43.535Z,24.83
2017-05-11T09:07:54.560Z,24.83
2017-05-11T09:09:05.833Z,24.93
2017-05-11T09:10:16.865Z,25
2017-05-11T09:11:27.904Z,25.15
2017-05-11T09:12:39.137Z,25.37
2017-05-11T09:13:50.220Z,25.38
2017-05-11T09:15:01.256Z,25.45
2017-05-11T09:16:12.509Z,25.26
2017-05-11T09:17:23.535Z,25.3
2017-05-11T09:18:34.571Z,25.34
2017-05-11T09:19:46.873Z,25.34
2017-05-11T09:21:03.725Z,25.24
2017-05-11T09:22:17.473Z,25.34
2017-05-11T09:23:28.714Z,25.57
2017-05-11T09:24:42.770Z,25.85
2017-05-11T09:25:54.560Z,25.96
2017-05-11T09:27:07.050Z,25.91
2017-05-11T09:28:23.134Z,25.97
2017-05-11T09:29:35.245Z,25.56
2017-05-11T09:30:50.354Z,25.48
2017-05-11T09:32:04.290Z,25.34
2017-05-11T09:33:19.801Z,25.49
2017-05-11T09:34:33.011Z,25.63
2017-05-11T09:35:46.589Z,25.59
2017-05-11T09:36:58.525Z,25.37
2017-05-11T09:38:09.707Z,25.44
2017-05-11T09:39:22.975Z,25.38
2017-05-11T09:40:34.990Z,25.41
2017-05-11T09:41:46.016Z,25.38
2017-05-11T09:42:57.770Z,25.37
2017-05-11T09:44:10.776Z,25.52
2017-05-11T09:45:21.892Z,25.74
2017-05-11T09:46:32.929Z,25.67
2017-05-11T09:47:43.977Z,26.09
2017-05-11T09:48:55.212Z,26.07
2017-05-11T09:50:06.321Z,26.23
2017-05-11T09:51:17.405Z,26.27
2017-05-11T09:52:28.636Z,26.39
2017-05-11T09:53:39.766Z,26.35
2017-05-11T09:54:50.869Z,26.32
2017-05-11T09:56:01.990Z,26.49
2017-05-11T09:57:14.141Z,26.69
2017-05-11T09:58:25.292Z,26.93
2017-05-11T09:59:36.697Z,27.15
2017-05-11T10:00:48.061Z,27.23
2017-05-11T10:01:59.270Z,27.37
2017-05-11T10:03:10.291Z,27.42
2017-05-11T10:04:21.336Z,27.18
2017-05-11T10:05:32.461Z,27.04
2017-05-11T10:06:43.697Z,27.08
2017-05-11T10:07:54.871Z,26.97
2017-05-11T10:09:06.344Z,26.89
2017-05-11T10:10:18.131Z,26.64
2017-05-11T10:11:29.172Z,26.47
2017-05-11T10:12:40.205Z,26.34
2017-05-11T10:13:51.309Z,26.24
2017-05-11T10:15:02.452Z,26.34
2017-05-11T10:16:13.483Z,26.37
2017-05-11T10:17:24.667Z,26.38
2017-05-11T10:18:35.765Z,26.41
2017-05-11T10:19:47.098Z,26.35
2017-05-11T10:20:58.552Z,26.24
2017-05-11T10:22:09.625Z,25.91
2017-05-11T10:23:21.347Z,25.82
2017-05-11T10:24:32.940Z,25.48
2017-05-11T10:25:45.386Z,25.34
2017-05-11T10:26:56.503Z,25.33
2017-05-11T10:28:07.612Z,25.38
2017-05-11T10:29:20.128Z,25.42
2017-05-11T10:30:31.380Z,25.59
2017-05-11T10:31:42.624Z,25.56
2017-05-11T10:32:53.662Z,25.69
2017-05-11T10:34:05.693Z,25.81
2017-05-11T10:35:20.982Z,25.94
2017-05-11T10:36:32.877Z,26.17
2017-05-11T10:37:43.901Z,26.39
2017-05-11T10:38:54.983Z,26.5
2017-05-11T10:40:06.014Z,26.49
2017-05-11T10:41:17.039Z,26.35
2017-05-11T10:42:28.065Z,26.37
2017-05-11T10:43:39.096Z,26.24
2017-05-11T10:44:50.163Z,26.44
2017-05-11T10:46:01.185Z,26.27
2017-05-11T10:47:12.222Z,26.41
2017-05-11T10:48:23.258Z,26.44
2017-05-11T10:49:34.296Z,26.75
2017-05-11T10:50:45.326Z,26.72
2017-05-11T10:51:56.364Z,26.9
2017-05-11T10:53:07.439Z,26.71
2017-05-11T10:54:18.462Z,26.59
2017-05-11T10:55:29.484Z,26.35
2017-05-11T10:56:40.708Z,26.32
2017-05-11T10:57:51.743Z,26.45
2017-05-11T10:59:02.808Z,26.75
2017-05-11T11:00:13.846Z,26.99
2017-05-11T11:01:24.922Z,27.12
2017-05-11T11:02:35.956Z,27.12
2017-05-11T11:03:46.989Z,27.12
2017-05-11T11:04:58.218Z,27.11
2017-05-11T11:06:09.249Z,27.12
2017-05-11T11:07:20.276Z,26.96
2017-05-11T11:08:31.498Z,26.84
2017-05-11T11:09:42.738Z,26.96
2017-05-11T11:10:53.815Z,27
2017-05-11T11:12:04.835Z,27.11
2017-05-11T11:13:16.054Z,27.13
2017-05-11T11:14:27.291Z,27.38
2017-05-11T11:15:38.323Z,27.71
2017-05-11T11:16:49.569Z,27.86
2017-05-11T11:18:00.606Z,27.76
2017-05-11T11:19:11.629Z,27.64
2017-05-11T11:20:22.676Z,27.57
2017-05-11T11:21:33.754Z,27.61
2017-05-11T11:22:44.776Z,27.68
2017-05-11T11:23:55.790Z,27.45
2017-05-11T11:25:06.817Z,27.27
2017-05-11T11:26:17.847Z,27.26
2017-05-11T11:27:29.072Z,27.49
2017-05-11T11:28:40.098Z,27.59
2017-05-11T11:29:51.113Z,27.66
2017-05-11T11:31:02.339Z,27.69
2017-05-11T11:32:13.411Z,27.71
2017-05-11T11:33:24.434Z,27.64
2017-05-11T11:34:35.661Z,27.75
2017-05-11T11:35:46.696Z,27.81
2017-05-11T11:36:57.772Z,28.02
2017-05-11T11:38:08.798Z,28.12
2017-05-11T11:39:20.024Z,28.14
2017-05-11T11:40:31.442Z,27.89
2017-05-11T11:41:42.472Z,28.11
2017-05-11T11:42:53.559Z,28.3
2017-05-11T11:44:04.591Z,28.18
2017-05-11T11:45:15.620Z,28.14
2017-05-11T11:46:26.638Z,28.21
2017-05-11T11:47:37.666Z,28.24
2017-05-11T11:48:48.892Z,28.16
2017-05-11T11:49:59.977Z,27.96
2017-05-11T11:51:11.028Z,27.66
2017-05-11T11:52:22.256Z,27.59
2017-05-11T11:53:33.342Z,27.16
2017-05-11T11:54:44.570Z,26.91
2017-05-11T11:55:55.804Z,26.61
2017-05-11T11:57:06.833Z,26.37
2017-05-11T11:58:18.059Z,26.24
2017-05-11T11:59:29.095Z,26.34
2017-05-11T12:00:40.125Z,26.52
2017-05-11T12:01:51.139Z,26.52
2017-05-11T12:03:02.159Z,26.71
2017-05-11T12:04:13.598Z,26.9
2017-05-11T12:05:24.639Z,27.11
2017-05-11T12:06:35.858Z,27.43
2017-05-11T12:07:46.890Z,27.76
2017-05-11T12:08:57.913Z,27.9
2017-05-11T12:10:08.933Z,28.33
2017-05-11T12:11:20.014Z,28.16
2017-05-11T12:12:31.040Z,27.72
2017-05-11T12:13:42.072Z,27.36
2017-05-11T12:14:53.099Z,27.09
2017-05-11T12:16:04.121Z,27.13
2017-05-11T12:17:15.145Z,26.86
2017-05-11T12:18:26.166Z,26.96
2017-05-11T12:19:37.187Z,26.91
2017-05-11T12:20:48.256Z,26.91
2017-05-11T12:21:59.283Z,26.72
2017-05-11T12:23:10.301Z,26.74
2017-05-11T12:24:21.529Z,26.64
2017-05-11T12:25:32.584Z,26.76
2017-05-11T12:26:43.592Z,26.63
2017-05-11T12:27:54.617Z,26.47
2017-05-11T12:29:05.634Z,26.39
2017-05-11T12:30:16.660Z,26.32
2017-05-11T12:31:27.915Z,26.2
2017-05-11T12:32:39.141Z,26.12
2017-05-11T12:33:50.175Z,26.06
2017-05-11T12:35:01.192Z,25.97
2017-05-11T12:36:12.437Z,25.89
2017-05-11T12:37:23.655Z,26
2017-05-11T12:38:34.681Z,25.96
2017-05-11T12:39:45.698Z,25.89
2017-05-11T12:40:56.720Z,25.82
2017-05-11T12:42:07.794Z,25.84
2017-05-11T12:43:18.819Z,25.79
2017-05-11T12:44:29.846Z,25.85
2017-05-11T12:45:40.871Z,25.93
2017-05-11T12:46:51.897Z,25.94
2017-05-11T12:48:02.923Z,25.91
2017-05-11T12:49:13.950Z,25.91
2017-05-11T12:50:24.970Z,25.96
2017-05-11T12:51:35.990Z,25.78
2017-05-11T12:52:47.060Z,25.81
2017-05-11T12:53:58.065Z,25.54
2017-05-11T12:55:09.121Z,25.59
2017-05-11T12:56:20.168Z,25.59
2017-05-11T12:57:31.796Z,25.7
2017-05-11T12:58:42.815Z,25.64
2017-05-11T12:59:54.230Z,25.81
2017-05-11T13:01:05.647Z,25.88
2017-05-11T13:02:16.869Z,25.88
2017-05-11T13:03:28.088Z,25.99
2017-05-11T13:04:39.308Z,25.99
2017-05-11T13:05:50.332Z,26.01
2017-05-11T13:07:01.355Z,25.99
2017-05-11T13:08:12.372Z,26.09
2017-05-11T13:09:23.393Z,26.03
2017-05-11T13:10:34.422Z,25.93
2017-05-11T13:11:45.639Z,25.99
2017-05-11T13:12:56.693Z,25.93
2017-05-11T13:14:07.708Z,25.93
2017-05-11T13:15:18.970Z,25.91
2017-05-11T13:16:29.984Z,25.81
2017-05-11T13:17:41.235Z,25.78
2017-05-11T13:18:52.462Z,25.75
2017-05-11T13:20:03.475Z,25.69
2017-05-11T13:21:14.498Z,25.89
2017-05-11T13:22:25.514Z,25.86
2017-05-11T13:23:36.529Z,26.09
2017-05-11T13:24:47.590Z,26.22
2017-05-11T13:25:58.622Z,26.31
2017-05-11T13:27:09.647Z,26.38
2017-05-11T13:28:20.665Z,26.39
2017-05-11T13:29:31.737Z,26.31
2017-05-11T13:30:42.759Z,26.39
2017-05-11T13:31:53.787Z,26.3
2017-05-11T13:33:04.805Z,26.16
2017-05-11T13:34:15.826Z,25.93
2017-05-11T13:35:26.939Z,25.88
2017-05-11T13:36:37.966Z,25.97
2017-05-11T13:37:48.986Z,26.01
2017-05-11T13:39:00.010Z,26.35
2017-05-11T13:40:11.018Z,26.5
2017-05-11T13:41:22.084Z,26.6
2017-05-11T13:42:33.107Z,26.79
2017-05-11T13:43:44.122Z,26.9
2017-05-11T13:44:55.151Z,27
2017-05-11T13:46:06.223Z,27.09
2017-05-11T13:47:17.238Z,27.15
2017-05-11T13:48:28.472Z,27.19
2017-05-11T13:49:39.495Z,27.16
2017-05-11T13:50:50.525Z,27.01
2017-05-11T13:52:01.562Z,27.01
2017-05-11T13:53:12.592Z,27
2017-05-11T13:54:23.816Z,26.93
2017-05-11T13:55:34.842Z,26.96
2017-05-11T13:56:46.152Z,26.97
2017-05-11T13:57:57.375Z,26.89
2017-05-11T13:59:08.399Z,26.87
2017-05-11T14:00:19.417Z,26.79
2017-05-11T14:01:30.442Z,26.81
2017-05-11T14:02:41.464Z,26.86
2017-05-11T14:03:52.485Z,26.84
2017-05-11T14:05:03.514Z,26.82
2017-05-11T14:06:14.549Z,26.64
2017-05-11T14:07:25.615Z,26.6
2017-05-11T14:08:36.638Z,26.5
2017-05-11T14:09:47.667Z,26.41
2017-05-11T14:10:58.714Z,26.39
2017-05-11T14:12:09.728Z,26.53
2017-05-11T14:13:20.755Z,26.52
2017-05-11T14:14:31.772Z,26.45
2017-05-11T14:15:42.801Z,26.38
2017-05-11T14:16:54.024Z,26.32
2017-05-11T14:18:05.044Z,26.19
2017-05-11T14:19:16.062Z,26.2
2017-05-11T14:20:27.082Z,26.22
2017-05-11T14:21:38.102Z,26.19
2017-05-11T14:22:49.116Z,26.16
2017-05-11T14:24:00.349Z,26.16
2017-05-11T14:25:11.423Z,26.15
2017-05-11T14:26:22.448Z,26.07
2017-05-11T14:27:33.472Z,26.04
2017-05-11T14:28:44.489Z,26.04
2017-05-11T14:29:55.899Z,25.94
2017-05-11T14:31:06.939Z,26.19
2017-05-11T14:32:18.172Z,26.2
2017-05-11T14:33:29.176Z,26.15
2017-05-11T14:34:40.242Z,26.22
2017-05-11T14:35:51.257Z,26.01
2017-05-11T14:37:02.274Z,25.89
2017-05-11T14:38:13.343Z,25.7
2017-05-11T14:39:24.405Z,25.57
2017-05-11T14:40:35.638Z,25.57
2017-05-11T14:41:46.675Z,25.34
2017-05-11T14:42:57.702Z,25.17
2017-05-11T14:44:08.722Z,25.23
2017-05-11T14:45:19.784Z,25.19
2017-05-11T14:46:30.802Z,25.08
2017-05-11T14:47:41.825Z,24.86
2017-05-11T14:48:52.853Z,24.82
2017-05-11T14:50:03.882Z,24.87
2017-05-11T14:51:14.906Z,24.94
2017-05-11T14:52:25.933Z,24.92
2017-05-11T14:53:36.955Z,24.94
2017-05-11T14:54:47.973Z,24.89
2017-05-11T14:55:59.443Z,25.09
2017-05-11T14:57:10.483Z,25.19
2017-05-11T14:58:21.506Z,25.24
2017-05-11T14:59:32.739Z,25.24
2017-05-11T15:00:44.150Z,25.17
2017-05-11T15:01:55.594Z,25.2
2017-05-11T15:03:06.614Z,25.09
2017-05-11T15:04:17.628Z,25.12
2017-05-11T15:05:29.035Z,25.11
2017-05-11T15:06:40.097Z,24.93
2017-05-11T15:07:51.313Z,24.94
2017-05-11T15:09:02.322Z,24.94
2017-05-11T15:10:13.537Z,24.92
2017-05-11T15:11:24.554Z,24.92
2017-05-11T15:12:35.631Z,24.9
2017-05-11T15:13:46.643Z,24.9
2017-05-11T15:14:57.646Z,25.04
2017-05-11T15:16:08.858Z,25.02
2017-05-11T15:17:19.868Z,25.02
2017-05-11T15:18:30.885Z,25.04
2017-05-11T15:19:41.901Z,25.19
2017-05-11T15:20:53.117Z,25.14
2017-05-11T15:22:04.591Z,25.19
2017-05-11T15:23:15.625Z,25.15
2017-05-11T15:24:26.645Z,25.01
2017-05-11T15:25:37.865Z,25.02
2017-05-11T15:26:48.887Z,24.92
2017-05-11T15:27:59.905Z,24.92
2017-05-11T15:29:10.977Z,24.89
2017-05-11T15:30:22.000Z,24.75
2017-05-11T15:31:33.017Z,24.74